createdAt,value
2022-10-03T00:02:31.748Z,14.50
2022-10-03T00:05:01.463Z,14.50
2022-10-03T00:07:46.804Z,14.50
2022-10-03T00:10:22.019Z,14.50
2022-10-03T00:12:54.724Z,14.40
2022-10-03T00:15:26.369Z,14.40
2022-10-03T00:18:12.312Z,14.40
2022-10-03T00:20:41.789Z,14.40
2022-10-03T00:23:12.000Z,14.30
2022-10-03T00:25:53.467Z,14.30
2022-10-03T00:28:29.202Z,14.30
2022-10-03T00:31:01.488Z,14.30
2022-10-03T00:33:37.277Z,14.20
2022-10-03T00:36:08.461Z,14.20
2022-10-03T00:38:43.797Z,14.20
2022-10-03T00:41:37.207Z,14.20
2022-10-03T00:44:22.361Z,14.10
2022-10-03T00:46:48.967Z,14.10
2022-10-03T00:49:21.589Z,14.10
2022-10-03T00:51:57.418Z,14.10
2022-10-03T00:54:39.086Z,14.00
2022-10-03T00:57:25.404Z,14.00
2022-10-03T01:00:18.044Z,14.00
2022-10-03T01:03:03.227Z,14.00
2022-10-03T01:06:08.304Z,13.90
2022-10-03T01:08:40.700Z,13.90
2022-10-03T01:11:22.368Z,13.90
2022-10-03T01:13:54.910Z,13.90
2022-10-03T01:16:27.044Z,13.90
2022-10-03T01:18:56.525Z,13.80
2022-10-03T01:21:42.000Z,13.80
2022-10-03T01:24:23.726Z,13.80
2022-10-03T01:26:55.941Z,13.80
2022-10-03T01:29:47.153Z,13.70
2022-10-03T01:32:13.790Z,13.70
2022-10-03T01:34:49.418Z,13.70
2022-10-03T01:37:22.939Z,13.70
2022-10-03T01:39:50.450Z,13.70
2022-10-03T01:42:33.265Z,13.60
2022-10-03T01:45:23.432Z,13.60
2022-10-03T01:47:53.122Z,13.60
2022-10-03T01:50:34.547Z,13.60
2022-10-03T01:53:04.690Z,13.60
2022-10-03T01:55:49.656Z,13.50
2022-10-03T01:58:34.899Z,13.50
2022-10-03T02:01:04.340Z,13.50
2022-10-03T02:03:54.905Z,13.50
2022-10-03T02:06:32.755Z,13.50
2022-10-03T02:09:10.655Z,13.40
2022-10-03T02:11:45.140Z,13.40
2022-10-03T02:14:17.732Z,13.40
2022-10-03T02:16:44.151Z,13.40
2022-10-03T02:19:29.788Z,13.30
2022-10-03T02:21:57.457Z,13.30
2022-10-03T02:24:36.059Z,13.30
2022-10-03T02:27:12.742Z,13.30
2022-10-03T02:29:57.645Z,13.30
2022-10-03T02:32:27.422Z,13.30
2022-10-03T02:34:56.970Z,13.20
2022-10-03T02:37:29.523Z,13.20
2022-10-03T02:39:58.995Z,13.20
2022-10-03T02:42:44.014Z,13.20
2022-10-03T02:45:20.468Z,13.20
2022-10-03T02:48:30.175Z,13.20
2022-10-03T02:51:01.302Z,13.10
2022-10-03T02:53:47.246Z,13.10
2022-10-03T02:56:14.002Z,13.10
2022-10-03T02:58:59.102Z,13.10
2022-10-03T03:01:34.630Z,13.00
2022-10-03T03:04:19.228Z,13.00
2022-10-03T03:06:54.536Z,13.00
2022-10-03T03:09:30.559Z,13.00
2022-10-03T03:12:00.095Z,13.00
2022-10-03T03:14:32.491Z,13.00
2022-10-03T03:17:02.010Z,13.00
2022-10-03T03:19:28.396Z,13.00
2022-10-03T03:22:20.652Z,12.90
2022-10-03T03:24:56.212Z,12.90
2022-10-03T03:27:41.468Z,12.90
2022-10-03T03:30:10.838Z,12.90
2022-10-03T03:32:42.805Z,12.90
2022-10-03T03:35:28.119Z,12.90
2022-10-03T03:38:00.698Z,12.80
2022-10-03T03:40:29.678Z,12.80
2022-10-03T03:42:56.067Z,12.80
2022-10-03T03:45:22.506Z,12.80
2022-10-03T03:48:10.270Z,12.80
2022-10-03T03:50:36.662Z,12.80
2022-10-03T03:53:06.123Z,12.80
2022-10-03T03:55:41.038Z,12.70
2022-10-03T03:58:26.225Z,12.70
2022-10-03T04:01:01.975Z,12.70
2022-10-03T04:03:46.310Z,12.70
2022-10-03T04:06:24.641Z,12.70
2022-10-03T04:09:00.872Z,12.70
2022-10-03T04:11:39.475Z,12.70
2022-10-03T04:14:08.816Z,12.70
2022-10-03T04:17:03.667Z,12.70
2022-10-03T04:19:44.559Z,12.60
2022-10-03T04:22:14.944Z,12.50
2022-10-03T04:24:47.526Z,12.50
2022-10-03T04:27:32.845Z,12.50
2022-10-03T04:30:16.753Z,12.50
2022-10-03T04:32:49.087Z,12.50
2022-10-03T04:35:33.197Z,12.50
2022-10-03T04:38:25.610Z,12.40
2022-10-03T04:40:55.770Z,12.40
2022-10-03T04:43:25.118Z,12.40
2022-10-03T04:45:51.597Z,12.40
2022-10-03T04:48:30.100Z,12.40
2022-10-03T04:51:16.117Z,12.40
2022-10-03T04:53:57.760Z,12.40
2022-10-03T04:56:33.334Z,12.40
2022-10-03T04:59:08.910Z,12.40
2022-10-03T05:01:41.422Z,12.30
2022-10-03T05:04:31.404Z,12.30
2022-10-03T05:07:30.411Z,12.30
2022-10-03T05:10:07.294Z,12.30
2022-10-03T05:12:55.154Z,12.30
2022-10-03T05:15:24.277Z,12.30
2022-10-03T05:18:09.619Z,12.30
2022-10-03T05:20:48.360Z,12.20
2022-10-03T05:23:30.916Z,12.20
2022-10-03T05:26:06.976Z,12.20
2022-10-03T05:28:47.529Z,12.20
2022-10-03T05:31:33.851Z,12.20
2022-10-03T05:34:01.254Z,12.20
2022-10-03T05:36:27.836Z,12.20
2022-10-03T05:39:20.029Z,12.20
2022-10-03T05:42:22.223Z,12.20
2022-10-03T05:45:04.345Z,12.10
2022-10-03T05:47:45.556Z,12.10
2022-10-03T05:50:15.272Z,12.10
2022-10-03T05:53:02.795Z,12.10
2022-10-03T05:55:38.249Z,12.10
2022-10-03T05:58:23.544Z,12.00
2022-10-03T06:01:08.677Z,12.00
2022-10-03T06:03:41.260Z,12.00
2022-10-03T06:06:08.056Z,12.00
2022-10-03T06:08:46.726Z,12.00
2022-10-03T06:11:13.101Z,12.00
2022-10-03T06:13:42.510Z,12.00
2022-10-03T06:16:09.011Z,12.00
2022-10-03T06:18:35.486Z,11.90
2022-10-03T06:21:20.550Z,11.90
2022-10-03T06:24:06.079Z,11.90
2022-10-03T06:26:38.768Z,11.90
2022-10-03T06:29:14.399Z,11.90
2022-10-03T06:31:59.722Z,11.90
2022-10-03T06:34:38.390Z,11.90
2022-10-03T06:37:10.898Z,11.90
2022-10-03T06:40:09.848Z,11.80
2022-10-03T06:42:42.567Z,11.90
2022-10-03T06:45:09.745Z,11.90
2022-10-03T06:47:38.945Z,11.90
2022-10-03T06:50:24.058Z,11.90
2022-10-03T06:52:50.440Z,11.80
2022-10-03T06:55:55.327Z,11.80
2022-10-03T06:58:40.758Z,11.90
2022-10-03T07:01:22.271Z,11.80
2022-10-03T07:04:00.797Z,11.80
2022-10-03T07:06:48.845Z,11.90
2022-10-03T07:09:34.035Z,11.90
2022-10-03T07:12:19.874Z,11.90
2022-10-03T07:14:50.103Z,12.00
2022-10-03T07:17:19.313Z,12.00
2022-10-03T07:19:48.517Z,12.00
2022-10-03T07:22:14.914Z,12.10
2022-10-03T07:24:47.341Z,12.20
2022-10-03T07:27:32.536Z,12.30
2022-10-03T07:30:08.355Z,12.30
2022-10-03T07:32:49.680Z,12.30
2022-10-03T07:35:52.643Z,12.40
2022-10-03T07:38:56.229Z,12.40
2022-10-03T07:41:31.679Z,12.50
2022-10-03T07:44:17.353Z,12.50
2022-10-03T07:46:55.665Z,12.60
2022-10-03T07:49:30.151Z,12.70
2022-10-03T07:52:16.159Z,12.80
2022-10-03T07:54:42.664Z,12.80
2022-10-03T07:57:12.514Z,12.90
2022-10-03T07:59:45.239Z,12.90
2022-10-03T08:02:11.630Z,13.10
2022-10-03T08:05:04.564Z,13.10
2022-10-03T08:07:33.743Z,13.20
2022-10-03T08:10:13.394Z,13.20
2022-10-03T08:12:58.587Z,13.20
2022-10-03T08:15:27.104Z,13.40
2022-10-03T08:17:53.553Z,13.60
2022-10-03T08:20:38.491Z,13.70
2022-10-03T08:23:12.330Z,13.70
2022-10-03T08:25:48.540Z,13.80
2022-10-03T08:28:21.025Z,13.90
2022-10-03T08:30:56.392Z,13.90
2022-10-03T08:33:22.926Z,14.10
2022-10-03T08:36:16.416Z,14.10
2022-10-03T08:38:43.636Z,14.30
2022-10-03T08:41:31.042Z,14.30
2022-10-03T08:44:10.857Z,14.40
2022-10-03T08:46:37.335Z,14.40
2022-10-03T08:49:26.896Z,14.20
2022-10-03T08:52:22.391Z,14.10
2022-10-03T08:54:52.801Z,14.30
2022-10-03T08:57:37.877Z,14.40
2022-10-03T09:00:13.563Z,14.40
2022-10-03T09:03:02.095Z,14.40
2022-10-03T09:05:46.613Z,14.30
2022-10-03T09:08:25.222Z,14.20
2022-10-03T09:10:51.655Z,14.40
2022-10-03T09:13:21.098Z,14.30
2022-10-03T09:16:06.374Z,14.50
2022-10-03T09:18:32.811Z,14.50
2022-10-03T09:21:21.095Z,14.50
2022-10-03T09:24:02.838Z,14.50
2022-10-03T09:26:41.523Z,14.40
2022-10-03T09:29:26.764Z,14.50
2022-10-03T09:32:12.120Z,14.60
2022-10-03T09:34:47.675Z,14.60
2022-10-03T09:37:14.063Z,14.80
2022-10-03T09:39:46.654Z,14.70
2022-10-03T09:42:16.062Z,14.80
2022-10-03T09:44:45.621Z,14.80
2022-10-03T09:47:30.969Z,14.90
2022-10-03T09:50:00.453Z,14.90
2022-10-03T09:52:46.890Z,15.00
2022-10-03T09:55:24.665Z,15.10
2022-10-03T09:57:56.870Z,15.10
2022-10-03T10:00:32.341Z,15.20
2022-10-03T10:03:16.782Z,15.10
2022-10-03T10:05:55.584Z,15.30
2022-10-03T10:08:22.005Z,15.20
2022-10-03T10:10:53.101Z,15.30
2022-10-03T10:14:03.180Z,15.30
2022-10-03T10:16:47.186Z,15.30
2022-10-03T10:19:32.520Z,15.50
2022-10-03T10:22:11.568Z,15.50
2022-10-03T10:24:56.888Z,15.40
2022-10-03T10:27:42.243Z,15.60
2022-10-03T10:30:18.092Z,15.70
2022-10-03T10:33:03.277Z,15.80
2022-10-03T10:35:48.433Z,15.80
2022-10-03T10:38:27.171Z,16.00
2022-10-03T10:40:59.858Z,15.90
2022-10-03T10:43:38.613Z,15.90
2022-10-03T10:46:05.755Z,15.90
2022-10-03T10:48:50.975Z,16.10
2022-10-03T10:51:36.520Z,16.30
2022-10-03T10:54:09.021Z,16.60
2022-10-03T10:56:54.389Z,16.70
2022-10-03T10:59:39.699Z,16.90
2022-10-03T11:02:24.760Z,16.70
2022-10-03T11:05:10.036Z,16.80
2022-10-03T11:07:54.145Z,17.20
2022-10-03T11:10:23.823Z,17.30
2022-10-03T11:13:09.007Z,17.10
2022-10-03T11:15:47.624Z,17.40
2022-10-03T11:18:28.056Z,17.30
2022-10-03T11:21:00.501Z,17.50
2022-10-03T11:23:35.934Z,17.60
2022-10-03T11:26:21.156Z,17.80
2022-10-03T11:29:06.318Z,17.90
2022-10-03T11:31:48.157Z,17.90
2022-10-03T11:34:14.633Z,18.00
2022-10-03T11:37:01.513Z,18.10
2022-10-03T11:39:34.993Z,18.40
2022-10-03T11:42:01.461Z,18.30
2022-10-03T11:44:32.718Z,18.20
2022-10-03T11:47:14.232Z,18.50
2022-10-03T11:50:00.905Z,18.50
2022-10-03T11:52:36.608Z,18.40
2022-10-03T11:55:05.767Z,18.40
2022-10-03T11:57:35.112Z,18.70
2022-10-03T12:00:06.150Z,18.70
2022-10-03T12:02:36.047Z,18.80
2022-10-03T12:05:21.315Z,18.80
2022-10-03T12:08:25.249Z,18.80
2022-10-03T12:11:01.210Z,19.00
2022-10-03T12:13:39.714Z,19.10
2022-10-03T12:16:12.809Z,19.10
2022-10-03T12:18:39.191Z,19.10
2022-10-03T12:21:17.225Z,19.10
2022-10-03T12:23:46.231Z,19.00
2022-10-03T12:26:17.041Z,19.10
2022-10-03T12:28:46.039Z,19.10
2022-10-03T12:31:19.382Z,19.20
2022-10-03T12:33:50.456Z,19.20
2022-10-03T12:36:19.206Z,19.30
2022-10-03T12:38:51.029Z,19.30
2022-10-03T12:41:37.105Z,19.40
2022-10-03T12:44:15.686Z,19.30
2022-10-03T12:46:47.996Z,19.30
2022-10-03T12:49:18.879Z,19.30
2022-10-03T12:51:48.303Z,19.40
2022-10-03T12:54:24.758Z,19.40
2022-10-03T12:57:11.836Z,19.30
2022-10-03T12:59:47.871Z,19.40
2022-10-03T13:02:17.422Z,19.50
2022-10-03T13:04:53.546Z,19.50
2022-10-03T13:07:32.393Z,19.40
2022-10-03T13:10:02.145Z,19.50
2022-10-03T13:12:39.229Z,19.50
2022-10-03T13:15:24.268Z,19.50
2022-10-03T13:18:09.888Z,19.60
2022-10-03T13:20:45.523Z,19.60
2022-10-03T13:23:30.758Z,19.60
2022-10-03T13:25:57.290Z,19.60
2022-10-03T13:28:35.797Z,19.60
2022-10-03T13:31:07.345Z,19.60
2022-10-03T13:33:37.879Z,19.60
2022-10-03T13:36:23.786Z,19.60
2022-10-03T13:39:00.003Z,19.60
2022-10-03T13:41:26.468Z,19.60
2022-10-03T13:44:10.084Z,19.70
2022-10-03T13:47:01.914Z,19.70
2022-10-03T13:49:35.680Z,19.70
2022-10-03T13:52:29.416Z,19.70
2022-10-03T13:54:55.825Z,19.70
2022-10-03T13:57:27.306Z,19.70
2022-10-03T13:59:53.802Z,19.70
2022-10-03T14:02:20.304Z,19.80
2022-10-03T14:04:49.780Z,19.70
2022-10-03T14:07:24.946Z,19.80
2022-10-03T14:10:10.562Z,19.80
2022-10-03T14:12:56.475Z,19.80
2022-10-03T14:15:27.259Z,19.80
2022-10-03T14:18:04.464Z,19.80
2022-10-03T14:20:34.586Z,19.80
2022-10-03T14:23:07.673Z,19.80
2022-10-03T14:25:37.715Z,19.90
2022-10-03T14:28:09.904Z,19.90
2022-10-03T14:30:36.478Z,19.90
2022-10-03T14:33:17.133Z,19.90
2022-10-03T14:35:58.433Z,19.90
2022-10-03T14:38:50.887Z,19.90
2022-10-03T14:41:20.854Z,20.00
2022-10-03T14:43:48.129Z,19.90
2022-10-03T14:46:15.944Z,19.90
2022-10-03T14:48:49.950Z,20.00
2022-10-03T14:51:34.660Z,20.00
2022-10-03T14:54:05.247Z,20.00
2022-10-03T14:56:33.702Z,20.10
2022-10-03T14:59:02.157Z,20.10
2022-10-03T15:01:28.903Z,20.10
2022-10-03T15:04:07.358Z,20.10
2022-10-03T15:06:35.499Z,20.10
2022-10-03T15:09:09.235Z,20.10
2022-10-03T15:11:36.858Z,20.00
2022-10-03T15:14:06.310Z,20.00
2022-10-03T15:16:34.679Z,20.10
2022-10-03T15:19:14.405Z,20.00
2022-10-03T15:21:45.527Z,20.00
2022-10-03T15:24:24.373Z,20.00
2022-10-03T15:26:54.369Z,20.00
2022-10-03T15:29:23.153Z,20.00
2022-10-03T15:31:50.713Z,20.00
2022-10-03T15:34:19.634Z,20.00
2022-10-03T15:36:57.253Z,19.90
2022-10-03T15:39:52.636Z,19.90
2022-10-03T15:42:23.528Z,19.90
2022-10-03T15:44:53.551Z,19.90
2022-10-03T15:47:27.423Z,19.90
2022-10-03T15:50:02.530Z,19.90
2022-10-03T15:52:34.945Z,19.80
2022-10-03T15:55:12.627Z,19.80
2022-10-03T15:57:43.757Z,19.80
2022-10-03T16:00:19.414Z,19.80
2022-10-03T16:02:52.656Z,19.80
2022-10-03T16:05:21.925Z,19.80
2022-10-03T16:07:51.107Z,19.80
2022-10-03T16:10:36.342Z,19.70
2022-10-03T16:13:18.631Z,19.70
2022-10-03T16:15:54.677Z,19.70
2022-10-03T16:18:21.183Z,19.70
2022-10-03T16:20:53.577Z,19.60
2022-10-03T16:23:23.271Z,19.70
2022-10-03T16:25:49.818Z,19.60
2022-10-03T16:28:18.451Z,19.60
2022-10-03T16:30:58.998Z,19.60
2022-10-03T16:33:27.837Z,19.60
2022-10-03T16:35:58.679Z,19.60
2022-10-03T16:38:26.703Z,19.60
2022-10-03T16:40:58.151Z,19.60
2022-10-03T16:43:25.268Z,19.50
2022-10-03T16:45:52.486Z,19.50
2022-10-03T16:48:47.226Z,19.50
2022-10-03T16:51:28.147Z,19.50
2022-10-03T16:53:55.651Z,19.40
2022-10-03T16:56:27.240Z,19.30
2022-10-03T16:58:55.188Z,19.40
2022-10-03T17:01:38.324Z,19.30
2022-10-03T17:04:19.924Z,19.30
2022-10-03T17:06:48.006Z,19.30
2022-10-03T17:09:20.540Z,19.30
2022-10-03T17:11:50.682Z,19.30
2022-10-03T17:14:18.304Z,19.20
2022-10-03T17:16:52.626Z,19.20
2022-10-03T17:19:28.153Z,19.20
2022-10-03T17:21:55.768Z,19.10
2022-10-03T17:24:34.351Z,19.10
2022-10-03T17:27:04.263Z,19.10
2022-10-03T17:29:30.658Z,19.10
2022-10-03T17:32:23.152Z,19.00
2022-10-03T17:35:02.152Z,19.00
2022-10-03T17:37:28.552Z,18.90
2022-10-03T17:40:16.526Z,18.90
2022-10-03T17:42:47.237Z,18.90
2022-10-03T17:45:33.972Z,18.90
2022-10-03T17:48:19.349Z,18.80
2022-10-03T17:50:54.984Z,18.80
2022-10-03T17:53:24.514Z,18.70
2022-10-03T17:55:55.054Z,18.70
2022-10-03T17:58:22.296Z,18.70
2022-10-03T18:00:59.109Z,18.70
2022-10-03T18:03:28.283Z,18.60
2022-10-03T18:05:58.681Z,18.60
2022-10-03T18:08:28.157Z,18.60
2022-10-03T18:10:56.218Z,18.50
2022-10-03T18:13:26.717Z,18.50
2022-10-03T18:15:53.183Z,18.50
2022-10-03T18:18:19.677Z,18.50
2022-10-03T18:20:58.863Z,18.40
2022-10-03T18:23:53.733Z,18.40
2022-10-03T18:26:27.125Z,18.40
2022-10-03T18:29:12.045Z,18.30
2022-10-03T18:31:41.197Z,18.30
2022-10-03T18:34:13.711Z,18.30
2022-10-03T18:36:45.658Z,18.20
2022-10-03T18:39:17.155Z,18.20
2022-10-03T18:41:48.400Z,18.10
2022-10-03T18:44:17.844Z,18.10
2022-10-03T18:46:47.621Z,18.10
2022-10-03T18:49:32.753Z,18.00
2022-10-03T18:52:06.950Z,18.00
2022-10-03T18:54:45.145Z,18.00
2022-10-03T18:57:21.954Z,17.90
2022-10-03T19:00:02.036Z,17.90
2022-10-03T19:02:41.665Z,17.90
2022-10-03T19:05:10.990Z,17.80
2022-10-03T19:07:43.081Z,17.80
2022-10-03T19:10:24.537Z,17.80
2022-10-03T19:12:54.474Z,17.70
2022-10-03T19:15:33.283Z,17.70
2022-10-03T19:18:08.738Z,17.70
2022-10-03T19:20:40.096Z,17.60
2022-10-03T19:23:12.292Z,17.60
2022-10-03T19:25:43.179Z,17.60
2022-10-03T19:28:22.923Z,17.60
2022-10-03T19:31:00.817Z,17.50
2022-10-03T19:33:27.703Z,17.50
2022-10-03T19:35:56.077Z,17.50
2022-10-03T19:38:27.126Z,17.50
2022-10-03T19:40:53.862Z,17.40
2022-10-03T19:43:26.608Z,17.40
2022-10-03T19:46:13.392Z,17.40
2022-10-03T19:48:44.158Z,17.40
2022-10-03T19:51:20.541Z,17.30
2022-10-03T19:53:50.091Z,17.30
2022-10-03T19:56:18.167Z,17.30
2022-10-03T19:58:46.108Z,17.30
2022-10-03T20:01:12.871Z,17.20
2022-10-03T20:03:42.337Z,17.20
2022-10-03T20:06:16.035Z,17.20
2022-10-03T20:08:48.265Z,17.20
2022-10-03T20:11:14.994Z,17.10
2022-10-03T20:13:46.229Z,17.10
2022-10-03T20:16:14.334Z,17.10
2022-10-03T20:18:41.455Z,17.10
2022-10-03T20:21:11.642Z,17.00
2022-10-03T20:23:41.064Z,17.00
2022-10-03T20:26:10.553Z,17.00
2022-10-03T20:28:52.758Z,17.00
2022-10-03T20:31:22.618Z,16.90
2022-10-03T20:33:50.684Z,16.90
2022-10-03T20:36:28.380Z,16.90
2022-10-03T20:38:57.753Z,16.90
2022-10-03T20:41:47.639Z,16.80
2022-10-03T20:44:32.463Z,16.80
2022-10-03T20:47:05.318Z,16.80
2022-10-03T20:49:40.479Z,16.80
2022-10-03T20:52:07.926Z,16.70
2022-10-03T20:54:36.466Z,16.70
2022-10-03T20:57:05.075Z,16.70
2022-10-03T20:59:52.574Z,16.70
2022-10-03T21:02:19.053Z,16.60
2022-10-03T21:04:51.406Z,16.60
2022-10-03T21:07:17.892Z,16.60
2022-10-03T21:10:00.429Z,16.60
2022-10-03T21:12:29.019Z,16.60
2022-10-03T21:15:02.854Z,16.50
2022-10-03T21:17:29.627Z,16.50
2022-10-03T21:19:59.030Z,16.50
2022-10-03T21:22:26.904Z,16.50
2022-10-03T21:24:57.490Z,16.40
2022-10-03T21:27:24.424Z,16.40
2022-10-03T21:29:53.941Z,16.40
2022-10-03T21:32:23.375Z,16.40
2022-10-03T21:34:57.832Z,16.30
2022-10-03T21:37:37.202Z,16.30
2022-10-03T21:40:13.395Z,16.30
2022-10-03T21:42:42.809Z,16.30
2022-10-03T21:45:21.519Z,16.20
2022-10-03T21:47:55.467Z,16.20
2022-10-03T21:50:24.732Z,16.20
2022-10-03T21:52:51.099Z,16.20
2022-10-03T21:55:50.651Z,16.20
2022-10-03T21:58:29.877Z,16.10
2022-10-03T22:01:15.092Z,16.10
2022-10-03T22:03:48.098Z,16.10
2022-10-03T22:06:23.474Z,16.10
2022-10-03T22:08:50.215Z,16.10
2022-10-03T22:11:22.775Z,16.00
2022-10-03T22:14:07.895Z,16.00
2022-10-03T22:17:00.571Z,16.00
2022-10-03T22:19:33.491Z,16.00
2022-10-03T22:22:06.540Z,16.00
2022-10-03T22:24:38.112Z,15.90
2022-10-03T22:27:12.341Z,15.90
2022-10-03T22:29:43.838Z,15.90
2022-10-03T22:32:15.332Z,15.90
2022-10-03T22:34:54.421Z,15.90
2022-10-03T22:37:22.253Z,15.80
2022-10-03T22:39:49.040Z,15.80
2022-10-03T22:42:16.542Z,15.80
2022-10-03T22:44:46.463Z,15.80
2022-10-03T22:47:16.481Z,15.80
2022-10-03T22:49:44.508Z,15.70
2022-10-03T22:52:15.248Z,15.70
2022-10-03T22:54:42.327Z,15.70
2022-10-03T22:57:10.181Z,15.70
2022-10-03T22:59:50.348Z,15.60
2022-10-03T23:02:17.855Z,15.60
2022-10-03T23:04:53.592Z,15.60
2022-10-03T23:07:23.121Z,15.60
2022-10-03T23:10:04.561Z,15.60
2022-10-03T23:12:36.990Z,15.50
2022-10-03T23:15:04.506Z,15.50
2022-10-03T23:17:52.557Z,15.50
2022-10-03T23:20:37.494Z,15.50
2022-10-03T23:23:08.928Z,15.50
2022-10-03T23:25:55.824Z,15.40
2022-10-03T23:28:40.794Z,15.40
2022-10-03T23:31:07.377Z,15.40
2022-10-03T23:33:33.797Z,15.40
2022-10-03T23:36:29.710Z,15.40
2022-10-03T23:38:59.624Z,15.40
2022-10-03T23:41:42.173Z,15.30
2022-10-03T23:44:35.526Z,15.30
2022-10-03T23:47:03.460Z,15.30
2022-10-03T23:49:30.003Z,15.30
2022-10-03T23:51:56.861Z,15.30
2022-10-03T23:54:23.442Z,15.20
2022-10-03T23:56:50.092Z,15.20
2022-10-03T23:59:16.657Z,15.20
